createdAt,value
2024-05-09T00:00:39.271Z,11.64
2024-05-09T00:03:42.861Z,11.54
2024-05-09T00:06:44.749Z,11.46
2024-05-09T00:09:48.176Z,11.46
2024-05-09T00:12:50.002Z,11.44
2024-05-09T00:15:51.928Z,11.38
2024-05-09T00:18:54.335Z,11.37
2024-05-09T00:21:56.166Z,11.33
2024-05-09T00:24:57.961Z,11.26
2024-05-09T00:27:59.857Z,11.22
2024-05-09T00:31:03.040Z,11.15
2024-05-09T00:34:05.101Z,11.06
2024-05-09T00:37:07.065Z,11.02
2024-05-09T00:40:18.223Z,11.05
2024-05-09T00:43:24.649Z,10.94
2024-05-09T00:46:26.586Z,10.80
2024-05-09T00:49:28.775Z,10.70
2024-05-09T00:52:30.910Z,10.67
2024-05-09T00:55:33.957Z,10.59
2024-05-09T00:58:36.086Z,10.53
2024-05-09T01:01:38.072Z,10.45
2024-05-09T01:04:40.213Z,10.37
2024-05-09T01:07:43.437Z,10.37
2024-05-09T01:10:47.879Z,10.29
2024-05-09T01:13:50.412Z,10.31
2024-05-09T01:16:52.363Z,10.18
2024-05-09T01:19:54.316Z,10.12
2024-05-09T01:22:57.628Z,10.10
2024-05-09T01:25:59.473Z,10.08
2024-05-09T01:29:01.414Z,10.01
2024-05-09T01:32:04.977Z,10.06
2024-05-09T01:35:07.132Z,10.05
2024-05-09T01:38:10.038Z,10.04
2024-05-09T01:41:12.029Z,10.05
2024-05-09T01:44:13.970Z,10.07
2024-05-09T01:47:15.921Z,10.08
2024-05-09T01:50:22.504Z,10.10
2024-05-09T01:53:30.866Z,10.05
2024-05-09T01:56:32.846Z,10.00
2024-05-09T01:59:34.832Z,9.91
2024-05-09T02:02:36.744Z,9.85
2024-05-09T02:05:38.692Z,9.84
2024-05-09T02:08:40.894Z,9.82
2024-05-09T02:11:44.690Z,9.75
2024-05-09T02:14:46.536Z,9.72
2024-05-09T02:17:48.578Z,9.86
2024-05-09T02:20:50.649Z,9.90
2024-05-09T02:23:52.521Z,9.91
2024-05-09T02:26:54.415Z,9.93
2024-05-09T02:29:56.327Z,9.95
2024-05-09T02:32:58.392Z,10.01
2024-05-09T02:36:00.298Z,10.08
2024-05-09T02:39:02.146Z,10.12
2024-05-09T02:42:04.139Z,10.07
2024-05-09T02:45:06.343Z,9.94
2024-05-09T02:48:13.214Z,9.87
2024-05-09T02:51:15.745Z,9.86
2024-05-09T02:54:17.743Z,9.87
2024-05-09T02:57:19.616Z,9.87
2024-05-09T03:00:26.737Z,9.81
2024-05-09T03:03:37.130Z,9.73
2024-05-09T03:06:42.679Z,9.71
2024-05-09T03:09:47.614Z,9.73
2024-05-09T03:12:49.675Z,9.87
2024-05-09T03:15:51.513Z,9.90
2024-05-09T03:18:55.258Z,9.94
2024-05-09T03:21:57.103Z,9.94
2024-05-09T03:24:59.071Z,10.06
2024-05-09T03:28:01.074Z,10.02
2024-05-09T03:31:03.011Z,9.95
2024-05-09T03:34:05.136Z,9.92
2024-05-09T03:37:07.050Z,9.80
2024-05-09T03:40:14.627Z,9.82
2024-05-09T03:43:22.071Z,9.79
2024-05-09T03:46:23.968Z,9.73
2024-05-09T03:49:26.067Z,9.59
2024-05-09T03:52:27.991Z,9.46
2024-05-09T03:55:29.916Z,9.25
2024-05-09T03:58:31.777Z,9.17
2024-05-09T04:01:33.674Z,9.15
2024-05-09T04:04:35.679Z,9.17
2024-05-09T04:07:38.136Z,9.19
2024-05-09T04:10:40.665Z,9.18
2024-05-09T04:13:43.258Z,9.18
2024-05-09T04:16:45.153Z,9.15
2024-05-09T04:19:47.098Z,9.11
2024-05-09T04:22:49.023Z,9.11
2024-05-09T04:25:50.935Z,9.14
2024-05-09T04:28:52.853Z,9.11
2024-05-09T04:31:55.881Z,9.08
2024-05-09T04:34:57.826Z,9.09
2024-05-09T04:38:00.611Z,9.10
2024-05-09T04:41:02.713Z,9.10
2024-05-09T04:44:04.810Z,9.12
2024-05-09T04:47:06.821Z,9.13
2024-05-09T04:50:11.709Z,9.05
2024-05-09T04:53:17.150Z,9.11
2024-05-09T04:56:19.402Z,9.12
2024-05-09T04:59:22.223Z,9.18
2024-05-09T05:02:24.243Z,9.17
2024-05-09T05:05:26.134Z,9.11
2024-05-09T05:08:28.141Z,9.16
2024-05-09T05:11:30.086Z,9.14
2024-05-09T05:14:32.066Z,9.13
2024-05-09T05:17:34.410Z,9.24
2024-05-09T05:20:36.495Z,9.28
2024-05-09T05:23:41.043Z,9.33
2024-05-09T05:26:43.001Z,9.31
2024-05-09T05:29:44.947Z,9.38
2024-05-09T05:32:47.065Z,9.47
2024-05-09T05:35:49.215Z,9.47
2024-05-09T05:38:51.198Z,9.55
2024-05-09T05:41:53.088Z,9.57
2024-05-09T05:44:55.127Z,9.70
2024-05-09T05:47:57.096Z,9.79
2024-05-09T05:51:01.886Z,9.82
2024-05-09T05:54:05.481Z,9.89
2024-05-09T05:57:07.323Z,9.96
2024-05-09T06:00:15.159Z,9.99
2024-05-09T06:03:20.036Z,10.08
2024-05-09T06:06:21.991Z,10.17
2024-05-09T06:09:23.786Z,10.20
2024-05-09T06:12:26.043Z,10.21
2024-05-09T06:15:28.001Z,10.29
2024-05-09T06:18:30.244Z,10.37
2024-05-09T06:21:32.289Z,10.40
2024-05-09T06:24:34.100Z,10.51
2024-05-09T06:27:35.906Z,10.56
2024-05-09T06:30:40.428Z,10.63
2024-05-09T06:33:43.933Z,10.80
2024-05-09T06:36:46.905Z,10.90
2024-05-09T06:39:51.428Z,11.05
2024-05-09T06:42:54.693Z,11.11
2024-05-09T06:45:56.488Z,11.35
2024-05-09T06:49:00.511Z,11.56
2024-05-09T06:52:02.383Z,11.83
2024-05-09T06:55:04.362Z,12.10
2024-05-09T06:58:07.293Z,12.32
2024-05-09T07:01:09.151Z,12.55
2024-05-09T07:04:11.180Z,12.77
2024-05-09T07:07:13.127Z,13.04
2024-05-09T07:10:22.006Z,13.33
2024-05-09T07:13:30.408Z,13.75
2024-05-09T07:16:32.257Z,14.08
2024-05-09T07:19:34.173Z,14.30
2024-05-09T07:22:36.030Z,14.53
2024-05-09T07:25:38.619Z,14.72
2024-05-09T07:28:40.844Z,14.91
2024-05-09T07:31:42.738Z,15.30
2024-05-09T07:34:44.576Z,15.65
2024-05-09T07:37:46.446Z,15.75
2024-05-09T07:40:48.692Z,15.79
2024-05-09T07:43:50.660Z,16.01
2024-05-09T07:48:13.616Z,15.96
2024-05-09T07:53:38.419Z,16.64
2024-05-09T07:56:41.248Z,16.80
2024-05-09T07:59:43.451Z,16.87
2024-05-09T08:02:45.392Z,16.89
2024-05-09T08:05:47.275Z,16.89
2024-05-09T08:08:49.888Z,16.87
2024-05-09T08:11:55.210Z,17.07
2024-05-09T08:14:57.122Z,16.96
2024-05-09T08:18:00.261Z,16.94
2024-05-09T08:21:02.344Z,17.13
2024-05-09T08:24:04.255Z,17.04
2024-05-09T08:27:06.107Z,17.29
2024-05-09T08:30:15.283Z,17.32
2024-05-09T08:33:20.573Z,17.79
2024-05-09T08:36:22.492Z,17.76
2024-05-09T08:39:24.387Z,17.83
2024-05-09T08:42:29.320Z,17.78
2024-05-09T08:45:35.618Z,17.79
2024-05-09T08:48:39.988Z,18.17
2024-05-09T08:51:42.941Z,18.39
2024-05-09T08:54:45.299Z,18.19
2024-05-09T08:57:48.505Z,17.96
2024-05-09T09:00:50.483Z,18.46
2024-05-09T09:03:53.675Z,18.78
2024-05-09T09:06:58.769Z,19.10
2024-05-09T09:10:03.245Z,19.28
2024-05-09T09:13:09.545Z,19.36
2024-05-09T09:16:12.979Z,19.44
2024-05-09T09:19:15.134Z,19.50
2024-05-09T09:22:19.746Z,19.58
2024-05-09T09:25:22.800Z,19.81
2024-05-09T09:28:24.670Z,20.11
2024-05-09T09:31:26.636Z,20.09
2024-05-09T09:34:28.973Z,20.50
2024-05-09T09:37:30.986Z,20.33
2024-05-09T09:40:41.079Z,20.31
2024-05-09T09:43:48.860Z,20.74
2024-05-09T09:46:51.925Z,20.63
2024-05-09T09:49:55.553Z,20.62
2024-05-09T09:52:59.351Z,20.83
2024-05-09T09:56:02.235Z,21.05
2024-05-09T09:59:04.554Z,21.12
2024-05-09T10:02:06.696Z,21.53
2024-05-09T10:05:09.601Z,21.54
2024-05-09T10:08:12.469Z,21.44
2024-05-09T10:11:20.158Z,21.10
2024-05-09T10:14:22.374Z,20.30
2024-05-09T10:17:24.364Z,19.68
2024-05-09T10:20:30.858Z,19.82
2024-05-09T10:23:36.258Z,20.03
2024-05-09T10:26:38.998Z,20.00
2024-05-09T10:29:51.606Z,19.78
2024-05-09T10:32:56.763Z,19.77
2024-05-09T10:36:03.417Z,20.05
2024-05-09T10:39:05.490Z,20.21
2024-05-09T10:42:10.134Z,20.01
2024-05-09T10:45:11.947Z,19.72
2024-05-09T10:48:13.979Z,20.00
2024-05-09T10:51:18.295Z,20.63
2024-05-09T10:54:20.114Z,21.32
2024-05-09T10:57:22.618Z,20.73
2024-05-09T11:00:35.678Z,20.61
2024-05-09T11:03:39.337Z,20.66
2024-05-09T11:06:42.236Z,21.47
2024-05-09T11:09:44.712Z,20.69
2024-05-09T11:12:46.624Z,20.56
2024-05-09T11:15:48.527Z,20.68
2024-05-09T11:18:59.686Z,21.32
2024-05-09T11:22:04.700Z,22.11
2024-05-09T11:25:06.903Z,21.48
2024-05-09T11:28:08.802Z,20.85
2024-05-09T11:31:11.090Z,21.15
2024-05-09T11:34:13.181Z,22.32
2024-05-09T11:37:15.266Z,22.10
2024-05-09T11:40:24.847Z,21.37
2024-05-09T11:43:30.562Z,21.79
2024-05-09T11:46:32.556Z,22.23
2024-05-09T11:49:34.406Z,22.82
2024-05-09T11:52:36.280Z,22.55
2024-05-09T11:55:38.237Z,21.84
2024-05-09T11:58:41.576Z,22.17
2024-05-09T12:01:43.716Z,23.00
2024-05-09T12:04:47.013Z,22.76
2024-05-09T12:07:51.222Z,22.93
2024-05-09T12:10:53.513Z,23.36
2024-05-09T12:13:55.478Z,23.24
2024-05-09T12:16:59.364Z,22.93
2024-05-09T12:20:01.214Z,23.69
2024-05-09T12:23:03.055Z,23.78
2024-05-09T12:26:05.147Z,23.72
2024-05-09T12:29:07.951Z,22.82
2024-05-09T12:32:10.039Z,23.03
2024-05-09T12:35:11.917Z,23.11
2024-05-09T12:38:14.413Z,22.67
2024-05-09T12:41:16.265Z,23.14
2024-05-09T12:44:18.119Z,22.96
2024-05-09T12:47:22.142Z,22.88
2024-05-09T12:50:31.062Z,22.94
2024-05-09T12:53:36.390Z,23.56
2024-05-09T12:56:38.246Z,23.88
2024-05-09T12:59:42.189Z,23.65
2024-05-09T13:02:44.077Z,23.64
2024-05-09T13:05:46.391Z,23.57
2024-05-09T13:08:48.423Z,23.67
2024-05-09T13:11:50.385Z,23.61
2024-05-09T13:14:52.265Z,23.94
2024-05-09T13:17:56.408Z,23.66
2024-05-09T13:21:00.155Z,23.95
2024-05-09T13:24:02.015Z,23.98
2024-05-09T13:27:04.102Z,23.93
2024-05-09T13:30:12.054Z,23.77
2024-05-09T13:33:19.847Z,23.44
2024-05-09T13:36:22.106Z,23.92
2024-05-09T13:39:24.077Z,23.78
2024-05-09T13:42:27.436Z,24.14
2024-05-09T13:45:29.401Z,24.12
2024-05-09T13:48:31.510Z,24.01
2024-05-09T13:51:33.433Z,23.95
2024-05-09T13:54:35.323Z,24.06
2024-05-09T13:57:37.269Z,24.05
2024-05-09T14:00:46.256Z,24.27
2024-05-09T14:03:50.546Z,22.85
2024-05-09T14:06:52.834Z,22.78
2024-05-09T14:09:54.820Z,23.43
2024-05-09T14:12:56.784Z,23.97
2024-05-09T14:15:59.013Z,24.05
2024-05-09T14:19:01.219Z,24.53
2024-05-09T14:22:06.229Z,24.30
2024-05-09T14:25:09.842Z,24.35
2024-05-09T14:28:13.030Z,24.24
2024-05-09T14:31:15.469Z,24.26
2024-05-09T14:34:17.659Z,24.68
2024-05-09T14:37:19.777Z,24.22
2024-05-09T14:40:31.173Z,23.86
2024-05-09T14:43:41.571Z,23.98
2024-05-09T14:46:43.523Z,23.12
2024-05-09T14:49:45.495Z,23.15
2024-05-09T14:52:47.501Z,23.72
2024-05-09T14:55:49.952Z,24.11
2024-05-09T14:58:51.891Z,23.93
2024-05-09T15:01:53.765Z,24.23
2024-05-09T15:04:55.702Z,24.47
2024-05-09T15:07:58.188Z,24.67
2024-05-09T15:11:00.103Z,24.16
2024-05-09T15:14:01.962Z,24.36
2024-05-09T15:17:04.012Z,23.65
2024-05-09T15:20:09.450Z,22.96
2024-05-09T15:23:11.766Z,23.27
2024-05-09T15:26:13.893Z,23.61
2024-05-09T15:29:15.723Z,24.00
2024-05-09T15:32:17.516Z,23.88
2024-05-09T15:35:19.387Z,23.54
2024-05-09T15:38:21.341Z,24.17
2024-05-09T15:41:23.130Z,24.33
2024-05-09T15:44:25.831Z,24.44
2024-05-09T15:47:28.149Z,24.58
2024-05-09T15:50:37.089Z,24.66
2024-05-09T15:53:42.197Z,24.91
2024-05-09T15:56:48.822Z,24.54
2024-05-09T15:59:51.036Z,24.32
2024-05-09T16:02:52.937Z,24.50
2024-05-09T16:05:57.649Z,23.80
2024-05-09T16:08:59.867Z,23.76
2024-05-09T16:12:01.854Z,23.48
2024-05-09T16:15:04.163Z,23.55
2024-05-09T16:18:06.832Z,23.46
2024-05-09T16:21:08.676Z,23.94
2024-05-09T16:24:10.504Z,24.03
2024-05-09T16:27:12.903Z,24.39
2024-05-09T16:30:21.239Z,24.42
2024-05-09T16:33:30.146Z,24.40
2024-05-09T16:36:32.337Z,23.95
2024-05-09T16:39:34.239Z,23.37
2024-05-09T16:42:36.102Z,23.08
2024-05-09T16:45:40.515Z,22.66
2024-05-09T16:48:45.771Z,22.33
2024-05-09T16:51:47.720Z,22.75
2024-05-09T16:54:49.638Z,22.78
2024-05-09T16:57:52.150Z,22.26
2024-05-09T17:00:54.086Z,22.09
2024-05-09T17:03:56.165Z,22.07
2024-05-09T17:06:58.213Z,22.20
2024-05-09T17:10:00.288Z,22.14
2024-05-09T17:13:03.616Z,22.17
2024-05-09T17:16:08.237Z,22.22
2024-05-09T17:19:10.256Z,22.08
2024-05-09T17:22:12.642Z,21.86
2024-05-09T17:25:14.631Z,21.72
2024-05-09T17:28:16.945Z,21.76
2024-05-09T17:31:18.823Z,21.50
2024-05-09T17:34:20.856Z,21.41
2024-05-09T17:37:22.825Z,21.17
2024-05-09T17:40:31.148Z,20.91
2024-05-09T17:43:36.684Z,20.78
2024-05-09T17:46:38.768Z,20.70
2024-05-09T17:49:40.940Z,20.48
2024-05-09T17:52:42.747Z,20.35
2024-05-09T17:55:44.844Z,20.39
2024-05-09T17:58:48.944Z,20.32
2024-05-09T18:01:51.025Z,20.27
2024-05-09T18:04:53.009Z,20.19
2024-05-09T18:07:55.319Z,19.98
2024-05-09T18:10:57.180Z,19.88
2024-05-09T18:13:59.077Z,19.74
2024-05-09T18:17:00.986Z,19.65
2024-05-09T18:20:05.325Z,19.32
2024-05-09T18:23:07.508Z,19.10
2024-05-09T18:26:09.602Z,19.04
2024-05-09T18:29:11.538Z,18.91
2024-05-09T18:32:13.437Z,18.72
2024-05-09T18:35:15.460Z,18.61
2024-05-09T18:38:18.617Z,18.47
2024-05-09T18:41:21.714Z,18.30
2024-05-09T18:44:23.529Z,17.95
2024-05-09T18:47:25.535Z,17.71
2024-05-09T18:50:34.924Z,17.18
2024-05-09T18:53:41.765Z,16.94
2024-05-09T18:56:45.153Z,16.89
2024-05-09T18:59:47.244Z,16.77
2024-05-09T19:02:49.436Z,16.50
2024-05-09T19:05:51.634Z,16.32
2024-05-09T19:08:53.580Z,16.19
2024-05-09T19:11:55.444Z,16.23
2024-05-09T19:14:57.307Z,16.26
2024-05-09T19:17:59.550Z,16.32
2024-05-09T19:21:01.457Z,16.09
2024-05-09T19:24:03.510Z,16.00
2024-05-09T19:27:05.360Z,16.06
2024-05-09T19:30:17.195Z,15.92
2024-05-09T19:33:23.632Z,16.01
2024-05-09T19:36:25.749Z,16.13
2024-05-09T19:39:27.618Z,16.15
2024-05-09T19:42:31.514Z,16.26
2024-05-09T19:45:35.169Z,16.46
2024-05-09T19:48:38.383Z,16.55
2024-05-09T19:51:41.668Z,16.63
2024-05-09T19:54:45.255Z,16.54
2024-05-09T19:57:47.251Z,16.50
2024-05-09T20:00:49.246Z,16.44
2024-05-09T20:03:51.441Z,16.45
2024-05-09T20:06:53.542Z,16.36
2024-05-09T20:09:55.477Z,16.41
2024-05-09T20:12:57.364Z,16.41
2024-05-09T20:16:01.404Z,16.15
2024-05-09T20:19:03.748Z,16.16
2024-05-09T20:22:05.777Z,15.89
2024-05-09T20:25:07.894Z,15.99
2024-05-09T20:28:10.761Z,15.87
2024-05-09T20:31:21.038Z,15.58
2024-05-09T20:34:23.347Z,15.27
2024-05-09T20:37:26.067Z,15.19
2024-05-09T20:40:32.797Z,15.18
2024-05-09T20:43:38.214Z,15.16
2024-05-09T20:46:40.087Z,15.69
2024-05-09T20:49:42.011Z,15.93
2024-05-09T20:52:43.944Z,15.95
2024-05-09T20:55:45.959Z,15.87
2024-05-09T20:58:48.231Z,15.95
2024-05-09T21:01:50.222Z,16.04
2024-05-09T21:04:52.350Z,16.12
2024-05-09T21:07:54.326Z,16.30
2024-05-09T21:10:56.190Z,16.15
2024-05-09T21:13:57.963Z,16.18
2024-05-09T21:17:00.041Z,16.23
2024-05-09T21:20:02.351Z,16.21
2024-05-09T21:23:04.878Z,16.05
2024-05-09T21:26:07.128Z,15.92
2024-05-09T21:29:08.964Z,15.77
2024-05-09T21:32:10.811Z,15.64
2024-05-09T21:35:12.792Z,15.62
2024-05-09T21:38:15.213Z,15.57
2024-05-09T21:41:17.071Z,15.60
2024-05-09T21:44:18.977Z,15.69
2024-05-09T21:47:20.910Z,15.77
2024-05-09T21:50:28.526Z,15.94
2024-05-09T21:53:40.164Z,15.88
2024-05-09T21:56:42.029Z,16.00
2024-05-09T21:59:44.148Z,15.94
2024-05-09T22:02:45.967Z,16.06
2024-05-09T22:05:47.774Z,16.09
2024-05-09T22:08:49.602Z,16.10
2024-05-09T22:11:53.016Z,16.18
2024-05-09T22:14:55.707Z,16.26
2024-05-09T22:17:57.832Z,16.27
2024-05-09T22:20:59.809Z,16.31
2024-05-09T22:24:01.743Z,16.38
2024-05-09T22:27:03.845Z,16.26
2024-05-09T22:30:09.188Z,16.27
2024-05-09T22:33:15.035Z,16.23
2024-05-09T22:36:17.067Z,16.23
2024-05-09T22:39:18.938Z,16.23
2024-05-09T22:42:20.852Z,16.08
2024-05-09T22:45:22.739Z,16.20
2024-05-09T22:48:26.003Z,16.20
2024-05-09T22:51:27.993Z,16.05
2024-05-09T22:54:29.926Z,16.14
2024-05-09T22:57:31.802Z,16.10
2024-05-09T23:00:33.881Z,16.11
2024-05-09T23:03:38.967Z,16.09
2024-05-09T23:06:41.749Z,15.95
2024-05-09T23:09:46.864Z,15.97
2024-05-09T23:12:49.070Z,15.93
2024-05-09T23:15:50.939Z,15.98
2024-05-09T23:18:52.973Z,15.92
2024-05-09T23:21:54.888Z,15.69
2024-05-09T23:24:56.722Z,15.83
2024-05-09T23:27:58.847Z,15.91
2024-05-09T23:31:00.866Z,15.76
2024-05-09T23:34:02.955Z,15.78
2024-05-09T23:37:05.071Z,15.76
2024-05-09T23:40:09.623Z,15.75
2024-05-09T23:43:12.771Z,15.69
2024-05-09T23:46:15.076Z,15.14
2024-05-09T23:49:16.956Z,14.23
2024-05-09T23:52:18.902Z,13.99
2024-05-09T23:55:21.050Z,13.91
2024-05-09T23:58:23.081Z,13.87
